sensor_id;sensor_type;location;lat;lon;timestamp;P1;durP1;ratioP1;P2;durP2;ratioP2
51664;SDS011;37751;52.408;12.536;2023-07-31T00:02:16;4.55;;;1.73;;
51664;SDS011;37751;52.408;12.536;2023-07-31T00:04:44;7.15;;;2.10;;
51664;SDS011;37751;52.408;12.536;2023-07-31T00:07:12;4.57;;;1.95;;
51664;SDS011;37751;52.408;12.536;2023-07-31T00:09:40;9.50;;;3.50;;
51664;SDS011;37751;52.408;12.536;2023-07-31T00:12:08;8.32;;;3.80;;
51664;SDS011;37751;52.408;12.536;2023-07-31T00:14:35;6.20;;;3.95;;
51664;SDS011;37751;52.408;12.536;2023-07-31T00:17:03;6.45;;;2.50;;
51664;SDS011;37751;52.408;12.536;2023-07-31T00:19:31;4.93;;;2.22;;
51664;SDS011;37751;52.408;12.536;2023-07-31T00:21:59;9.32;;;1.90;;
51664;SDS011;37751;52.408;12.536;2023-07-31T00:24:27;7.07;;;2.17;;
51664;SDS011;37751;52.408;12.536;2023-07-31T00:26:55;6.05;;;1.80;;
51664;SDS011;37751;52.408;12.536;2023-07-31T00:29:22;3.40;;;1.80;;
51664;SDS011;37751;52.408;12.536;2023-07-31T00:31:50;4.80;;;1.60;;
51664;SDS011;37751;52.408;12.536;2023-07-31T00:34:18;5.72;;;1.98;;
51664;SDS011;37751;52.408;12.536;2023-07-31T00:36:46;6.65;;;1.92;;
51664;SDS011;37751;52.408;12.536;2023-07-31T00:39:16;7.05;;;1.80;;
51664;SDS011;37751;52.408;12.536;2023-07-31T00:41:44;3.35;;;1.77;;
51664;SDS011;37751;52.408;12.536;2023-07-31T00:44:12;7.18;;;2.40;;
51664;SDS011;37751;52.408;12.536;2023-07-31T00:46:40;3.20;;;1.88;;
51664;SDS011;37751;52.408;12.536;2023-07-31T00:49:08;5.30;;;2.10;;
51664;SDS011;37751;52.408;12.536;2023-07-31T00:51:36;5.85;;;2.58;;
51664;SDS011;37751;52.408;12.536;2023-07-31T00:54:04;4.97;;;2.40;;
51664;SDS011;37751;52.408;12.536;2023-07-31T00:56:33;4.85;;;2.40;;
51664;SDS011;37751;52.408;12.536;2023-07-31T00:59:01;4.60;;;2.30;;
51664;SDS011;37751;52.408;12.536;2023-07-31T01:01:28;4.63;;;2.25;;
51664;SDS011;37751;52.408;12.536;2023-07-31T01:03:56;5.72;;;2.17;;
51664;SDS011;37751;52.408;12.536;2023-07-31T01:09:15;6.38;;;1.98;;
51664;SDS011;37751;52.408;12.536;2023-07-31T01:12:15;4.45;;;2.03;;
51664;SDS011;37751;52.408;12.536;2023-07-31T01:14:51;6.32;;;2.72;;
51664;SDS011;37751;52.408;12.536;2023-07-31T01:17:30;5.93;;;2.67;;
51664;SDS011;37751;52.408;12.536;2023-07-31T01:20:00;3.88;;;2.10;;
51664;SDS011;37751;52.408;12.536;2023-07-31T01:28:25;10.27;;;3.00;;
51664;SDS011;37751;52.408;12.536;2023-07-31T01:31:06;5.30;;;2.70;;
51664;SDS011;37751;52.408;12.536;2023-07-31T01:33:37;8.00;;;2.47;;
51664;SDS011;37751;52.408;12.536;2023-07-31T01:36:05;8.18;;;2.60;;
51664;SDS011;37751;52.408;12.536;2023-07-31T01:38:34;5.63;;;2.60;;
51664;SDS011;37751;52.408;12.536;2023-07-31T01:41:02;5.65;;;2.63;;
51664;SDS011;37751;52.408;12.536;2023-07-31T01:43:30;5.95;;;2.42;;
51664;SDS011;37751;52.408;12.536;2023-07-31T01:45:58;12.60;;;3.08;;
51664;SDS011;37751;52.408;12.536;2023-07-31T01:48:25;6.35;;;2.40;;
51664;SDS011;37751;52.408;12.536;2023-07-31T01:50:53;5.45;;;2.55;;
51664;SDS011;37751;52.408;12.536;2023-07-31T01:53:21;6.45;;;2.63;;
51664;SDS011;37751;52.408;12.536;2023-07-31T01:55:49;4.68;;;2.90;;
51664;SDS011;37751;52.408;12.536;2023-07-31T01:58:16;6.28;;;2.75;;
51664;SDS011;37751;52.408;12.536;2023-07-31T02:00:44;5.45;;;2.80;;
51664;SDS011;37751;52.408;12.536;2023-07-31T02:03:13;10.77;;;3.13;;
51664;SDS011;37751;52.408;12.536;2023-07-31T02:05:45;4.07;;;2.28;;
51664;SDS011;37751;52.408;12.536;2023-07-31T02:08:16;6.72;;;2.55;;
51664;SDS011;37751;52.408;12.536;2023-07-31T02:10:45;7.40;;;2.63;;
51664;SDS011;37751;52.408;12.536;2023-07-31T02:13:13;7.07;;;2.42;;
51664;SDS011;37751;52.408;12.536;2023-07-31T02:15:40;6.03;;;2.55;;
51664;SDS011;37751;52.408;12.536;2023-07-31T02:18:09;6.70;;;2.70;;
51664;SDS011;37751;52.408;12.536;2023-07-31T02:20:37;8.77;;;2.80;;
51664;SDS011;37751;52.408;12.536;2023-07-31T02:23:05;6.70;;;2.75;;
51664;SDS011;37751;52.408;12.536;2023-07-31T02:25:32;7.90;;;2.70;;
51664;SDS011;37751;52.408;12.536;2023-07-31T02:28:00;5.22;;;2.88;;
51664;SDS011;37751;52.408;12.536;2023-07-31T02:30:28;7.85;;;2.60;;
51664;SDS011;37751;52.408;12.536;2023-07-31T02:32:56;6.15;;;2.90;;
51664;SDS011;37751;52.408;12.536;2023-07-31T02:35:23;6.07;;;2.70;;
51664;SDS011;37751;52.408;12.536;2023-07-31T02:37:52;7.65;;;2.78;;
51664;SDS011;37751;52.408;12.536;2023-07-31T02:40:19;8.63;;;2.90;;
51664;SDS011;37751;52.408;12.536;2023-07-31T02:42:47;4.35;;;2.60;;
51664;SDS011;37751;52.408;12.536;2023-07-31T02:45:15;6.68;;;2.88;;
51664;SDS011;37751;52.408;12.536;2023-07-31T02:47:43;4.95;;;3.00;;
51664;SDS011;37751;52.408;12.536;2023-07-31T02:50:10;6.78;;;3.15;;
51664;SDS011;37751;52.408;12.536;2023-07-31T02:52:38;6.63;;;3.35;;
51664;SDS011;37751;52.408;12.536;2023-07-31T02:55:06;11.48;;;3.15;;
51664;SDS011;37751;52.408;12.536;2023-07-31T02:57:34;7.10;;;3.55;;
51664;SDS011;37751;52.408;12.536;2023-07-31T03:00:02;6.93;;;2.80;;
51664;SDS011;37751;52.408;12.536;2023-07-31T03:02:33;7.32;;;2.90;;
51664;SDS011;37751;52.408;12.536;2023-07-31T03:05:01;6.80;;;3.15;;
51664;SDS011;37751;52.408;12.536;2023-07-31T03:07:30;9.07;;;2.95;;
51664;SDS011;37751;52.408;12.536;2023-07-31T03:09:57;8.48;;;3.33;;
51664;SDS011;37751;52.408;12.536;2023-07-31T03:12:25;7.65;;;2.65;;
51664;SDS011;37751;52.408;12.536;2023-07-31T03:14:54;9.02;;;3.00;;
51664;SDS011;37751;52.408;12.536;2023-07-31T03:17:22;8.38;;;2.72;;
51664;SDS011;37751;52.408;12.536;2023-07-31T03:19:50;5.35;;;2.97;;
51664;SDS011;37751;52.408;12.536;2023-07-31T03:22:17;5.57;;;2.60;;
51664;SDS011;37751;52.408;12.536;2023-07-31T03:24:45;5.40;;;2.80;;
51664;SDS011;37751;52.408;12.536;2023-07-31T03:27:13;8.15;;;3.15;;
51664;SDS011;37751;52.408;12.536;2023-07-31T03:29:41;5.60;;;2.78;;
51664;SDS011;37751;52.408;12.536;2023-07-31T03:32:09;6.03;;;2.80;;
51664;SDS011;37751;52.408;12.536;2023-07-31T03:34:36;8.30;;;3.30;;
51664;SDS011;37751;52.408;12.536;2023-07-31T03:37:05;11.73;;;3.05;;
51664;SDS011;37751;52.408;12.536;2023-07-31T03:39:33;4.57;;;3.53;;
51664;SDS011;37751;52.408;12.536;2023-07-31T03:42:01;6.32;;;3.03;;
51664;SDS011;37751;52.408;12.536;2023-07-31T03:44:29;8.10;;;3.45;;
51664;SDS011;37751;52.408;12.536;2023-07-31T03:46:57;6.55;;;3.40;;
51664;SDS011;37751;52.408;12.536;2023-07-31T03:49:25;15.25;;;3.42;;
51664;SDS011;37751;52.408;12.536;2023-07-31T03:51:53;8.43;;;3.05;;
51664;SDS011;37751;52.408;12.536;2023-07-31T03:54:21;9.05;;;3.42;;
51664;SDS011;37751;52.408;12.536;2023-07-31T03:56:49;8.77;;;3.13;;
51664;SDS011;37751;52.408;12.536;2023-07-31T03:59:17;8.73;;;3.28;;
51664;SDS011;37751;52.408;12.536;2023-07-31T04:01:45;5.18;;;2.75;;
51664;SDS011;37751;52.408;12.536;2023-07-31T04:04:12;6.32;;;2.97;;
51664;SDS011;37751;52.408;12.536;2023-07-31T04:06:40;7.53;;;3.70;;
51664;SDS011;37751;52.408;12.536;2023-07-31T04:09:08;9.43;;;3.40;;
51664;SDS011;37751;52.408;12.536;2023-07-31T04:11:36;8.45;;;3.10;;
51664;SDS011;37751;52.408;12.536;2023-07-31T04:14:03;6.57;;;2.70;;
51664;SDS011;37751;52.408;12.536;2023-07-31T04:16:32;4.78;;;2.97;;
51664;SDS011;37751;52.408;12.536;2023-07-31T04:18:59;8.52;;;3.20;;
51664;SDS011;37751;52.408;12.536;2023-07-31T04:21:27;6.97;;;3.38;;
51664;SDS011;37751;52.408;12.536;2023-07-31T04:23:55;11.40;;;3.38;;
51664;SDS011;37751;52.408;12.536;2023-07-31T04:26:23;7.25;;;3.30;;
51664;SDS011;37751;52.408;12.536;2023-07-31T04:28:51;5.75;;;2.60;;
51664;SDS011;37751;52.408;12.536;2023-07-31T04:31:19;8.00;;;2.60;;
51664;SDS011;37751;52.408;12.536;2023-07-31T04:33:46;5.80;;;2.50;;
51664;SDS011;37751;52.408;12.536;2023-07-31T04:36:14;8.85;;;2.90;;
51664;SDS011;37751;52.408;12.536;2023-07-31T04:38:42;7.65;;;2.85;;
51664;SDS011;37751;52.408;12.536;2023-07-31T04:41:10;7.03;;;3.42;;
51664;SDS011;37751;52.408;12.536;2023-07-31T04:43:38;6.72;;;2.60;;
51664;SDS011;37751;52.408;12.536;2023-07-31T04:46:07;9.07;;;2.97;;
51664;SDS011;37751;52.408;12.536;2023-07-31T04:48:34;5.32;;;2.90;;
51664;SDS011;37751;52.408;12.536;2023-07-31T04:51:02;11.63;;;3.05;;
51664;SDS011;37751;52.408;12.536;2023-07-31T04:53:30;9.57;;;2.38;;
51664;SDS011;37751;52.408;12.536;2023-07-31T04:55:58;9.02;;;2.35;;
51664;SDS011;37751;52.408;12.536;2023-07-31T04:58:26;7.80;;;2.47;;
51664;SDS011;37751;52.408;12.536;2023-07-31T05:00:53;6.88;;;2.10;;
51664;SDS011;37751;52.408;12.536;2023-07-31T05:03:21;7.43;;;2.70;;
51664;SDS011;37751;52.408;12.536;2023-07-31T05:05:50;7.38;;;2.60;;
51664;SDS011;37751;52.408;12.536;2023-07-31T05:08:17;7.03;;;2.42;;
51664;SDS011;37751;52.408;12.536;2023-07-31T05:10:45;7.03;;;2.58;;
51664;SDS011;37751;52.408;12.536;2023-07-31T05:13:13;9.40;;;3.00;;
51664;SDS011;37751;52.408;12.536;2023-07-31T05:15:41;5.68;;;2.28;;
51664;SDS011;37751;52.408;12.536;2023-07-31T05:18:09;6.07;;;2.20;;
51664;SDS011;37751;52.408;12.536;2023-07-31T05:20:37;6.45;;;2.30;;
51664;SDS011;37751;52.408;12.536;2023-07-31T05:23:05;6.07;;;2.58;;
51664;SDS011;37751;52.408;12.536;2023-07-31T05:25:34;7.30;;;2.47;;
51664;SDS011;37751;52.408;12.536;2023-07-31T05:28:02;9.07;;;2.40;;
51664;SDS011;37751;52.408;12.536;2023-07-31T05:30:30;6.68;;;2.33;;
51664;SDS011;37751;52.408;12.536;2023-07-31T05:32:58;6.55;;;2.05;;
51664;SDS011;37751;52.408;12.536;2023-07-31T05:35:26;8.60;;;2.42;;
51664;SDS011;37751;52.408;12.536;2023-07-31T05:37:53;7.05;;;1.98;;
51664;SDS011;37751;52.408;12.536;2023-07-31T05:40:21;3.55;;;1.92;;
51664;SDS011;37751;52.408;12.536;2023-07-31T05:42:49;4.28;;;2.30;;
51664;SDS011;37751;52.408;12.536;2023-07-31T05:45:17;3.10;;;1.63;;
51664;SDS011;37751;52.408;12.536;2023-07-31T05:47:44;6.50;;;1.80;;
51664;SDS011;37751;52.408;12.536;2023-07-31T05:50:12;3.80;;;1.60;;
51664;SDS011;37751;52.408;12.536;2023-07-31T05:52:41;5.10;;;1.77;;
51664;SDS011;37751;52.408;12.536;2023-07-31T05:55:09;2.03;;;1.80;;
51664;SDS011;37751;52.408;12.536;2023-07-31T05:57:37;2.58;;;1.40;;
51664;SDS011;37751;52.408;12.536;2023-07-31T06:00:05;3.97;;;1.67;;
51664;SDS011;37751;52.408;12.536;2023-07-31T06:02:33;4.70;;;1.88;;
51664;SDS011;37751;52.408;12.536;2023-07-31T06:05:04;2.10;;;1.27;;
51664;SDS011;37751;52.408;12.536;2023-07-31T06:07:33;6.38;;;1.90;;
51664;SDS011;37751;52.408;12.536;2023-07-31T06:10:02;3.83;;;1.63;;
51664;SDS011;37751;52.408;12.536;2023-07-31T06:12:32;4.00;;;1.60;;
51664;SDS011;37751;52.408;12.536;2023-07-31T06:15:02;4.15;;;1.90;;
51664;SDS011;37751;52.408;12.536;2023-07-31T06:17:31;4.82;;;1.63;;
51664;SDS011;37751;52.408;12.536;2023-07-31T06:19:58;4.45;;;2.05;;
51664;SDS011;37751;52.408;12.536;2023-07-31T06:22:26;4.80;;;2.15;;
51664;SDS011;37751;52.408;12.536;2023-07-31T06:24:54;5.35;;;2.22;;
51664;SDS011;37751;52.408;12.536;2023-07-31T06:27:22;3.80;;;2.10;;
51664;SDS011;37751;52.408;12.536;2023-07-31T06:29:49;5.72;;;1.80;;
51664;SDS011;37751;52.408;12.536;2023-07-31T06:32:17;4.80;;;2.17;;
51664;SDS011;37751;52.408;12.536;2023-07-31T06:34:45;5.18;;;2.67;;
51664;SDS011;37751;52.408;12.536;2023-07-31T06:37:13;6.32;;;2.20;;
51664;SDS011;37751;52.408;12.536;2023-07-31T06:39:41;6.65;;;2.28;;
51664;SDS011;37751;52.408;12.536;2023-07-31T06:42:09;9.65;;;2.50;;
51664;SDS011;37751;52.408;12.536;2023-07-31T06:44:36;6.97;;;2.30;;
51664;SDS011;37751;52.408;12.536;2023-07-31T06:47:04;5.50;;;2.47;;
51664;SDS011;37751;52.408;12.536;2023-07-31T06:49:32;4.28;;;2.35;;
51664;SDS011;37751;52.408;12.536;2023-07-31T06:52:00;7.78;;;2.47;;
51664;SDS011;37751;52.408;12.536;2023-07-31T06:54:28;5.10;;;2.15;;
51664;SDS011;37751;52.408;12.536;2023-07-31T06:56:55;4.55;;;2.20;;
51664;SDS011;37751;52.408;12.536;2023-07-31T06:59:23;8.07;;;2.78;;
51664;SDS011;37751;52.408;12.536;2023-07-31T07:01:51;5.97;;;2.50;;
51664;SDS011;37751;52.408;12.536;2023-07-31T07:04:19;4.65;;;2.03;;
51664;SDS011;37751;52.408;12.536;2023-07-31T07:06:46;5.43;;;3.20;;
51664;SDS011;37751;52.408;12.536;2023-07-31T07:09:14;5.40;;;1.98;;
51664;SDS011;37751;52.408;12.536;2023-07-31T07:11:42;6.72;;;2.22;;
51664;SDS011;37751;52.408;12.536;2023-07-31T07:14:10;3.88;;;1.77;;
51664;SDS011;37751;52.408;12.536;2023-07-31T07:16:38;8.65;;;2.40;;
51664;SDS011;37751;52.408;12.536;2023-07-31T07:19:08;5.18;;;2.40;;
51664;SDS011;37751;52.408;12.536;2023-07-31T07:21:36;4.25;;;2.53;;
51664;SDS011;37751;52.408;12.536;2023-07-31T07:24:04;5.43;;;2.20;;
51664;SDS011;37751;52.408;12.536;2023-07-31T07:26:32;5.38;;;2.13;;
51664;SDS011;37751;52.408;12.536;2023-07-31T07:29:00;5.15;;;2.20;;
51664;SDS011;37751;52.408;12.536;2023-07-31T07:31:29;3.83;;;1.98;;
51664;SDS011;37751;52.408;12.536;2023-07-31T07:33:57;4.40;;;2.20;;
51664;SDS011;37751;52.408;12.536;2023-07-31T07:36:25;4.75;;;2.28;;
51664;SDS011;37751;52.408;12.536;2023-07-31T07:38:55;4.15;;;1.90;;
51664;SDS011;37751;52.408;12.536;2023-07-31T07:41:23;3.83;;;2.38;;
51664;SDS011;37751;52.408;12.536;2023-07-31T07:43:51;5.05;;;1.90;;
51664;SDS011;37751;52.408;12.536;2023-07-31T07:46:19;3.83;;;1.85;;
51664;SDS011;37751;52.408;12.536;2023-07-31T07:48:47;1.83;;;1.30;;
51664;SDS011;37751;52.408;12.536;2023-07-31T07:51:14;2.13;;;1.15;;
51664;SDS011;37751;52.408;12.536;2023-07-31T07:53:42;4.07;;;1.70;;
51664;SDS011;37751;52.408;12.536;2023-07-31T07:56:10;5.38;;;1.52;;
51664;SDS011;37751;52.408;12.536;2023-07-31T07:58:38;2.42;;;1.80;;
51664;SDS011;37751;52.408;12.536;2023-07-31T08:01:06;3.50;;;1.50;;
51664;SDS011;37751;52.408;12.536;2023-07-31T08:03:33;3.63;;;1.95;;
51664;SDS011;37751;52.408;12.536;2023-07-31T08:06:01;5.43;;;2.22;;
51664;SDS011;37751;52.408;12.536;2023-07-31T08:08:29;4.18;;;1.85;;
51664;SDS011;37751;52.408;12.536;2023-07-31T08:10:57;2.65;;;1.17;;
51664;SDS011;37751;52.408;12.536;2023-07-31T08:13:25;3.10;;;1.85;;
51664;SDS011;37751;52.408;12.536;2023-07-31T08:15:53;4.43;;;1.60;;
51664;SDS011;37751;52.408;12.536;2023-07-31T08:18:21;4.07;;;1.73;;
51664;SDS011;37751;52.408;12.536;2023-07-31T08:20:49;2.47;;;1.35;;
51664;SDS011;37751;52.408;12.536;2023-07-31T08:23:17;3.58;;;1.35;;
51664;SDS011;37751;52.408;12.536;2023-07-31T08:25:45;1.90;;;1.25;;
51664;SDS011;37751;52.408;12.536;2023-07-31T08:28:13;2.83;;;1.40;;
51664;SDS011;37751;52.408;12.536;2023-07-31T08:30:41;2.72;;;1.33;;
51664;SDS011;37751;52.408;12.536;2023-07-31T08:33:10;1.85;;;0.93;;
51664;SDS011;37751;52.408;12.536;2023-07-31T08:35:38;2.20;;;1.20;;
51664;SDS011;37751;52.408;12.536;2023-07-31T08:38:05;3.63;;;2.25;;
51664;SDS011;37751;52.408;12.536;2023-07-31T08:40:35;3.88;;;1.73;;
51664;SDS011;37751;52.408;12.536;2023-07-31T08:43:05;2.97;;;1.10;;
51664;SDS011;37751;52.408;12.536;2023-07-31T08:45:34;2.22;;;1.15;;
51664;SDS011;37751;52.408;12.536;2023-07-31T08:48:02;2.22;;;1.13;;
51664;SDS011;37751;52.408;12.536;2023-07-31T08:50:30;2.60;;;0.70;;
51664;SDS011;37751;52.408;12.536;2023-07-31T08:52:58;1.60;;;1.30;;
51664;SDS011;37751;52.408;12.536;2023-07-31T08:55:26;3.15;;;1.60;;
51664;SDS011;37751;52.408;12.536;2023-07-31T08:57:55;2.97;;;1.27;;
51664;SDS011;37751;52.408;12.536;2023-07-31T09:00:24;1.88;;;1.30;;
51664;SDS011;37751;52.408;12.536;2023-07-31T09:02:57;3.35;;;1.23;;
51664;SDS011;37751;52.408;12.536;2023-07-31T09:05:36;4.28;;;1.25;;
51664;SDS011;37751;52.408;12.536;2023-07-31T09:08:07;2.42;;;1.50;;
51664;SDS011;37751;52.408;12.536;2023-07-31T09:10:42;1.45;;;1.05;;
51664;SDS011;37751;52.408;12.536;2023-07-31T09:13:11;1.60;;;1.13;;
51664;SDS011;37751;52.408;12.536;2023-07-31T09:15:45;2.85;;;1.17;;
51664;SDS011;37751;52.408;12.536;2023-07-31T09:18:14;2.88;;;1.48;;
51664;SDS011;37751;52.408;12.536;2023-07-31T09:20:45;2.00;;;1.33;;
51664;SDS011;37751;52.408;12.536;2023-07-31T09:23:27;3.88;;;2.45;;
51664;SDS011;37751;52.408;12.536;2023-07-31T09:26:13;5.10;;;1.85;;
51664;SDS011;37751;52.408;12.536;2023-07-31T09:28:58;2.20;;;1.50;;
51664;SDS011;37751;52.408;12.536;2023-07-31T09:31:42;2.30;;;1.65;;
51664;SDS011;37751;52.408;12.536;2023-07-31T09:34:11;2.42;;;1.50;;
51664;SDS011;37751;52.408;12.536;2023-07-31T09:36:41;4.03;;;1.30;;
51664;SDS011;37751;52.408;12.536;2023-07-31T09:39:11;2.90;;;1.75;;
51664;SDS011;37751;52.408;12.536;2023-07-31T09:41:45;4.53;;;3.17;;
51664;SDS011;37751;52.408;12.536;2023-07-31T09:44:20;3.58;;;1.63;;
51664;SDS011;37751;52.408;12.536;2023-07-31T09:46:48;4.40;;;2.00;;
51664;SDS011;37751;52.408;12.536;2023-07-31T09:49:17;4.15;;;1.90;;
51664;SDS011;37751;52.408;12.536;2023-07-31T09:51:44;3.92;;;2.05;;
51664;SDS011;37751;52.408;12.536;2023-07-31T09:54:15;3.90;;;2.20;;
51664;SDS011;37751;52.408;12.536;2023-07-31T09:56:45;9.13;;;2.30;;
51664;SDS011;37751;52.408;12.536;2023-07-31T09:59:16;7.72;;;2.28;;
51664;SDS011;37751;52.408;12.536;2023-07-31T10:01:50;5.25;;;2.22;;
51664;SDS011;37751;52.408;12.536;2023-07-31T10:04:20;5.07;;;2.60;;
51664;SDS011;37751;52.408;12.536;2023-07-31T10:06:54;6.40;;;2.70;;
51664;SDS011;37751;52.408;12.536;2023-07-31T10:09:22;5.97;;;3.13;;
51664;SDS011;37751;52.408;12.536;2023-07-31T10:11:55;4.68;;;3.00;;
51664;SDS011;37751;52.408;12.536;2023-07-31T10:14:27;5.95;;;2.90;;
51664;SDS011;37751;52.408;12.536;2023-07-31T10:16:57;6.43;;;2.80;;
51664;SDS011;37751;52.408;12.536;2023-07-31T10:19:26;6.22;;;3.10;;
51664;SDS011;37751;52.408;12.536;2023-07-31T10:21:57;10.98;;;3.40;;
51664;SDS011;37751;52.408;12.536;2023-07-31T10:24:26;10.20;;;3.08;;
51664;SDS011;37751;52.408;12.536;2023-07-31T10:26:56;8.32;;;2.92;;
51664;SDS011;37751;52.408;12.536;2023-07-31T10:29:27;8.02;;;2.72;;
51664;SDS011;37751;52.408;12.536;2023-07-31T10:31:57;4.97;;;2.80;;
51664;SDS011;37751;52.408;12.536;2023-07-31T10:34:26;7.78;;;3.38;;
51664;SDS011;37751;52.408;12.536;2023-07-31T10:40:05;7.30;;;2.95;;
51664;SDS011;37751;52.408;12.536;2023-07-31T10:42:35;5.15;;;3.30;;
51664;SDS011;37751;52.408;12.536;2023-07-31T10:45:12;5.25;;;3.50;;
51664;SDS011;37751;52.408;12.536;2023-07-31T10:47:44;6.90;;;3.40;;
51664;SDS011;37751;52.408;12.536;2023-07-31T10:52:47;7.97;;;3.30;;
51664;SDS011;37751;52.408;12.536;2023-07-31T10:57:53;12.50;;;3.47;;
51664;SDS011;37751;52.408;12.536;2023-07-31T11:00:30;5.10;;;2.83;;
51664;SDS011;37751;52.408;12.536;2023-07-31T11:02:58;7.57;;;3.00;;
51664;SDS011;37751;52.408;12.536;2023-07-31T11:08:34;14.32;;;3.70;;
51664;SDS011;37751;52.408;12.536;2023-07-31T11:11:10;7.95;;;3.88;;
51664;SDS011;37751;52.408;12.536;2023-07-31T11:13:50;7.80;;;3.65;;
51664;SDS011;37751;52.408;12.536;2023-07-31T11:16:24;11.55;;;3.50;;
51664;SDS011;37751;52.408;12.536;2023-07-31T11:18:53;6.15;;;2.83;;
51664;SDS011;37751;52.408;12.536;2023-07-31T11:21:24;5.43;;;3.38;;
51664;SDS011;37751;52.408;12.536;2023-07-31T11:23:55;7.72;;;3.72;;
51664;SDS011;37751;52.408;12.536;2023-07-31T11:26:27;6.32;;;3.03;;
51664;SDS011;37751;52.408;12.536;2023-07-31T11:28:58;4.55;;;2.75;;
51664;SDS011;37751;52.408;12.536;2023-07-31T11:31:26;5.53;;;3.03;;
51664;SDS011;37751;52.408;12.536;2023-07-31T11:34:06;5.20;;;3.20;;
51664;SDS011;37751;52.408;12.536;2023-07-31T11:36:34;5.88;;;2.80;;
51664;SDS011;37751;52.408;12.536;2023-07-31T11:39:08;5.43;;;2.97;;
51664;SDS011;37751;52.408;12.536;2023-07-31T11:41:40;8.35;;;3.10;;
51664;SDS011;37751;52.408;12.536;2023-07-31T11:44:08;4.45;;;2.70;;
51664;SDS011;37751;52.408;12.536;2023-07-31T11:46:56;8.40;;;3.20;;
51664;SDS011;37751;52.408;12.536;2023-07-31T11:49:24;4.93;;;2.83;;
51664;SDS011;37751;52.408;12.536;2023-07-31T11:51:53;5.68;;;2.90;;
51664;SDS011;37751;52.408;12.536;2023-07-31T11:54:21;6.57;;;2.53;;
51664;SDS011;37751;52.408;12.536;2023-07-31T11:56:49;5.78;;;2.60;;
51664;SDS011;37751;52.408;12.536;2023-07-31T11:59:17;5.93;;;2.55;;
51664;SDS011;37751;52.408;12.536;2023-07-31T12:01:45;6.63;;;2.83;;
51664;SDS011;37751;52.408;12.536;2023-07-31T12:04:14;4.93;;;2.72;;
51664;SDS011;37751;52.408;12.536;2023-07-31T12:06:41;5.22;;;2.90;;
51664;SDS011;37751;52.408;12.536;2023-07-31T12:09:11;7.80;;;3.08;;
51664;SDS011;37751;52.408;12.536;2023-07-31T12:11:43;8.13;;;2.53;;
51664;SDS011;37751;52.408;12.536;2023-07-31T17:55:13;5.15;;;1.63;;
51664;SDS011;37751;52.408;12.536;2023-07-31T17:57:42;3.70;;;2.20;;
51664;SDS011;37751;52.408;12.536;2023-07-31T18:00:10;4.85;;;1.90;;
51664;SDS011;37751;52.408;12.536;2023-07-31T18:02:38;4.57;;;2.50;;
51664;SDS011;37751;52.408;12.536;2023-07-31T18:05:07;3.38;;;1.95;;
51664;SDS011;37751;52.408;12.536;2023-07-31T18:07:35;4.15;;;2.40;;
51664;SDS011;37751;52.408;12.536;2023-07-31T18:10:03;11.45;;;7.55;;
51664;SDS011;37751;52.408;12.536;2023-07-31T18:12:31;10.77;;;7.32;;
51664;SDS011;37751;52.408;12.536;2023-07-31T18:14:59;17.33;;;12.25;;
51664;SDS011;37751;52.408;12.536;2023-07-31T18:17:27;5.88;;;3.13;;
51664;SDS011;37751;52.408;12.536;2023-07-31T18:19:55;4.45;;;2.70;;
51664;SDS011;37751;52.408;12.536;2023-07-31T18:22:24;4.07;;;2.20;;
51664;SDS011;37751;52.408;12.536;2023-07-31T18:24:51;7.13;;;3.22;;
51664;SDS011;37751;52.408;12.536;2023-07-31T18:27:19;6.97;;;2.40;;
51664;SDS011;37751;52.408;12.536;2023-07-31T18:29:48;4.45;;;2.85;;
51664;SDS011;37751;52.408;12.536;2023-07-31T18:32:16;9.07;;;4.28;;
51664;SDS011;37751;52.408;12.536;2023-07-31T18:34:44;7.47;;;3.47;;
51664;SDS011;37751;52.408;12.536;2023-07-31T18:37:12;7.75;;;3.95;;
51664;SDS011;37751;52.408;12.536;2023-07-31T18:39:39;8.07;;;3.72;;
51664;SDS011;37751;52.408;12.536;2023-07-31T18:42:07;9.95;;;4.55;;
51664;SDS011;37751;52.408;12.536;2023-07-31T18:44:35;10.77;;;5.43;;
51664;SDS011;37751;52.408;12.536;2023-07-31T18:47:03;6.40;;;4.22;;
51664;SDS011;37751;52.408;12.536;2023-07-31T18:49:31;10.20;;;5.15;;
51664;SDS011;37751;52.408;12.536;2023-07-31T18:51:59;8.25;;;4.80;;
51664;SDS011;37751;52.408;12.536;2023-07-31T18:54:26;7.72;;;4.57;;
51664;SDS011;37751;52.408;12.536;2023-07-31T18:56:54;12.25;;;4.07;;
51664;SDS011;37751;52.408;12.536;2023-07-31T18:59:22;6.90;;;3.40;;
51664;SDS011;37751;52.408;12.536;2023-07-31T19:01:50;7.10;;;3.92;;
51664;SDS011;37751;52.408;12.536;2023-07-31T19:04:18;6.80;;;3.28;;
51664;SDS011;37751;52.408;12.536;2023-07-31T19:06:45;6.55;;;3.40;;
51664;SDS011;37751;52.408;12.536;2023-07-31T19:09:13;10.45;;;4.25;;
51664;SDS011;37751;52.408;12.536;2023-07-31T19:11:41;7.15;;;3.00;;
51664;SDS011;37751;52.408;12.536;2023-07-31T19:14:10;6.82;;;3.38;;
51664;SDS011;37751;52.408;12.536;2023-07-31T19:16:39;6.85;;;3.13;;
51664;SDS011;37751;52.408;12.536;2023-07-31T19:19:10;7.13;;;3.03;;
51664;SDS011;37751;52.408;12.536;2023-07-31T19:21:37;4.72;;;2.63;;
51664;SDS011;37751;52.408;12.536;2023-07-31T19:24:05;8.55;;;3.38;;
51664;SDS011;37751;52.408;12.536;2023-07-31T19:26:34;6.03;;;3.22;;
51664;SDS011;37751;52.408;12.536;2023-07-31T19:29:01;4.32;;;2.72;;
51664;SDS011;37751;52.408;12.536;2023-07-31T19:31:29;8.48;;;3.70;;
51664;SDS011;37751;52.408;12.536;2023-07-31T19:33:57;4.80;;;3.00;;
51664;SDS011;37751;52.408;12.536;2023-07-31T19:36:25;5.43;;;2.85;;
51664;SDS011;37751;52.408;12.536;2023-07-31T19:38:53;8.55;;;2.88;;
51664;SDS011;37751;52.408;12.536;2023-07-31T19:41:20;5.88;;;3.13;;
51664;SDS011;37751;52.408;12.536;2023-07-31T19:43:48;5.20;;;3.05;;
51664;SDS011;37751;52.408;12.536;2023-07-31T19:46:16;12.30;;;3.50;;
51664;SDS011;37751;52.408;12.536;2023-07-31T19:48:44;4.57;;;2.60;;
51664;SDS011;37751;52.408;12.536;2023-07-31T19:51:12;6.35;;;2.83;;
51664;SDS011;37751;52.408;12.536;2023-07-31T19:53:40;7.18;;;2.90;;
51664;SDS011;37751;52.408;12.536;2023-07-31T19:56:07;4.32;;;2.35;;
51664;SDS011;37751;52.408;12.536;2023-07-31T19:58:35;8.40;;;3.08;;
51664;SDS011;37751;52.408;12.536;2023-07-31T20:01:03;6.18;;;3.10;;
51664;SDS011;37751;52.408;12.536;2023-07-31T20:03:31;6.05;;;4.35;;
51664;SDS011;37751;52.408;12.536;2023-07-31T20:05:59;9.75;;;2.70;;
51664;SDS011;37751;52.408;12.536;2023-07-31T20:08:27;3.75;;;2.30;;
51664;SDS011;37751;52.408;12.536;2023-07-31T20:10:55;5.25;;;2.22;;
51664;SDS011;37751;52.408;12.536;2023-07-31T20:13:25;9.10;;;2.92;;
51664;SDS011;37751;52.408;12.536;2023-07-31T20:15:52;6.40;;;3.10;;
51664;SDS011;37751;52.408;12.536;2023-07-31T20:18:20;7.93;;;4.03;;
51664;SDS011;37751;52.408;12.536;2023-07-31T20:20:48;6.20;;;3.15;;
51664;SDS011;37751;52.408;12.536;2023-07-31T20:23:16;5.90;;;2.95;;
51664;SDS011;37751;52.408;12.536;2023-07-31T20:26:03;7.95;;;3.08;;
51664;SDS011;37751;52.408;12.536;2023-07-31T20:28:31;6.90;;;3.08;;
51664;SDS011;37751;52.408;12.536;2023-07-31T20:30:59;4.07;;;2.38;;
51664;SDS011;37751;52.408;12.536;2023-07-31T20:33:27;6.70;;;2.38;;
51664;SDS011;37751;52.408;12.536;2023-07-31T20:35:55;8.02;;;2.60;;
51664;SDS011;37751;52.408;12.536;2023-07-31T20:38:22;6.07;;;2.50;;
51664;SDS011;37751;52.408;12.536;2023-07-31T20:40:50;3.85;;;2.22;;
51664;SDS011;37751;52.408;12.536;2023-07-31T20:43:19;3.63;;;2.28;;
51664;SDS011;37751;52.408;12.536;2023-07-31T20:45:47;4.47;;;2.67;;